Time;durP1;ratioP1;P1;durP2;ratioP2;P2;SDS_P1;SDS_P2;PMS_P1;PMS_P2;Temp;Humidity;BMP_temperature;BMP_pressure;BME280_temperature;BME280_humidity;BME280_pressure;Samples;Min_cycle;Max_cycle;Signal;HPM_P1;HPM_P2
2023/02/28 00:01:24;;;;;;;0.00;0.00;;;;;;;;;;6181860;23;19998;-91
2023/02/28 00:03:50;;;;;;;0.10;0.10;;;;;;;;;;6159166;23;20324;-91
2023/02/28 00:06:17;;;;;;;0.10;0.10;;;;;;;;;;6155652;23;20008;-91
2023/02/28 00:08:43;;;;;;;0.10;0.10;;;;;;;;;;6154238;23;19998;-93
2023/02/28 00:11:11;;;;;;;0.10;0.10;;;0.20;99.90;;;;;;6153691;23;20100;-92
2023/02/28 00:13:40;;;;;;;0.10;0.10;;;0.20;99.90;;;;;;6179968;23;19997;-92
2023/02/28 00:16:09;;;;;;;0.10;0.10;;;0.20;99.90;;;;;;6178855;23;20009;-91
2023/02/28 00:18:35;;;;;;;0.10;0.10;;;;;;;;;;6179045;23;20013;-91
2023/02/28 00:21:01;;;;;;;0.10;0.10;;;;;;;;;;6155525;23;20349;-91
2023/02/28 00:23:28;;;;;;;0.20;0.20;;;;;;;;;;6157316;23;19993;-91
2023/02/28 00:25:55;;;;;;;0.10;0.10;;;;;;;;;;6156961;23;20006;-91
2023/02/28 00:28:22;;;;;;;0.10;0.10;;;;;;;;;;6163785;23;20013;-91
2023/02/28 00:30:48;;;;;;;0.13;0.13;;;;;;;;;;6157951;23;20163;-91
2023/02/28 00:33:14;;;;;;;0.10;0.10;;;;;;;;;;6158652;23;20002;-92
2023/02/28 00:35:40;;;;;;;0.10;0.10;;;;;;;;;;6159081;23;20109;-91
2023/02/28 00:38:06;;;;;;;0.10;0.10;;;;;;;;;;6158008;23;20016;-91
2023/02/28 00:40:32;;;;;;;0.10;0.10;;;;;;;;;;6154712;23;20001;-91
2023/02/28 00:42:58;;;;;;;0.10;0.10;;;;;;;;;;6154755;23;20009;-91
2023/02/28 00:45:24;;;;;;;0.10;0.10;;;;;;;;;;6157179;23;20009;-91
2023/02/28 00:47:50;;;;;;;0.10;0.10;;;;;;;;;;6159997;23;20116;-90
2023/02/28 00:50:17;;;;;;;0.05;0.05;;;0.00;99.90;;;;;;6156508;23;20033;-91
2023/02/28 00:52:43;;;;;;;0.10;0.10;;;;;;;;;;6179397;23;20005;-91
2023/02/28 00:55:09;;;;;;;0.10;0.10;;;;;;;;;;6155052;23;20016;-92
2023/02/28 00:57:35;;;;;;;0.10;0.10;;;;;;;;;;6155916;23;20438;-91
2023/02/28 01:00:10;;;;;;;0.10;0.10;;;;;;;;;;6168662;23;20029;-91
2023/02/28 01:08:58;;;;;;;0.10;0.10;;;;;;;;;;6147763;23;20025;-90
2023/02/28 01:11:24;;;;;;;0.10;0.10;;;;;;;;;;6140336;23;20054;-91
2023/02/28 01:13:56;;;;;;;0.10;0.10;;;;;;;;;;6140074;23;20010;-91
2023/02/28 01:16:33;;;;;;;0.10;0.10;;;0.40;99.90;;;;;;6119788;23;20057;-91
2023/02/28 01:21:49;;;;;;;0.10;0.10;;;;;;;;;;6158357;23;20382;-90
2023/02/28 01:24:15;;;;;;;0.10;0.10;;;;;;;;;;6103845;23;20034;-91
2023/02/28 01:26:41;;;;;;;0.10;0.10;;;;;;;;;;6099144;23;20454;-91
2023/02/28 01:29:07;;;;;;;0.10;0.10;;;;;;;;;;6099098;23;20006;-90
2023/02/28 01:31:33;;;;;;;0.10;0.10;;;;;;;;;;6100770;23;20017;-90
2023/02/28 01:33:59;;;;;;;0.10;0.10;;;;;;;;;;6102236;23;20001;-91
2023/02/28 01:39:13;;;;;;;0.10;0.10;;;0.10;99.90;;;;;;6195909;23;20005;-88
2023/02/28 01:41:59;;;;;;;0.10;0.10;;;;;;;;;;6189989;23;20008;-88
2023/02/28 01:45:27;;;;;;;0.10;0.10;;;0.00;99.90;;;;;;6210643;23;20020;-88
2023/02/28 01:48:29;;;;;;;0.10;0.10;;;-0.10;99.90;;;;;;6185387;23;20001;-89
2023/02/28 01:51:31;;;;;;;0.10;0.10;;;-0.20;99.90;;;;;;6211173;23;20004;-88
2023/02/28 01:54:36;;;;;;;;;;;-0.20;99.90;;;;;;6204634;23;20004;-88
2023/02/28 01:57:37;;;;;;;;;;;-0.50;99.90;;;;;;6210324;23;19908;-88
2023/02/28 02:00:38;;;;;;;;;;;-1.40;99.90;;;;;;6212283;23;19939;-88
2023/02/28 02:03:34;;;;;;;;;;;-0.70;99.90;;;;;;6212416;23;19959;-88
2023/02/28 02:06:35;;;;;;;;;;;-0.50;99.90;;;;;;6211803;23;19907;-88
2023/02/28 02:09:33;;;;;;;;;;;-0.30;99.90;;;;;;6209830;23;19900;-88
2023/02/28 02:17:28;;;;;;;;;;;-0.50;99.90;;;;;;6140658;23;19920;-89
2023/02/28 02:19:58;;;;;;;;;;;-1.40;99.90;;;;;;6181552;23;19936;-88
2023/02/28 02:22:46;;;;;;;;;;;-0.90;99.90;;;;;;6181742;23;19901;-88
2023/02/28 02:28:12;;;;;;;;;;;-0.50;99.90;;;;;;6159138;23;19923;-88
2023/02/28 02:30:56;;;;;;;;;;;-0.30;99.90;;;;;;6157279;23;19899;-88
2023/02/28 02:33:25;;;;;;;;;;;-1.30;99.90;;;;;;6156831;23;19900;-88
2023/02/28 02:36:31;;;;;;;;;;;0.20;99.90;;;;;;6182196;23;19907;-88
2023/02/28 02:39:31;;;;;;;;;;;-0.20;99.90;;;;;;6181663;23;19916;-88
2023/02/28 02:41:59;;;;;;;;;;;-0.60;99.90;;;;;;6173547;23;19909;-89
2023/02/28 02:47:17;;;;;;;;;;;-0.50;99.90;;;;;;6152114;23;19927;-90
2023/02/28 02:49:50;;;;;;;;;;;-0.50;99.90;;;;;;6151631;23;20306;-91
2023/02/28 02:52:18;;;;;;;;;;;-0.50;99.90;;;;;;6156224;23;19963;-92
2023/02/28 02:54:45;;;;;;;;;;;0.00;99.90;;;;;;6155783;23;19908;-90
2023/02/28 02:57:17;;;;;;;;;;;-0.90;99.90;;;;;;6156658;23;19991;-90
2023/02/28 02:59:42;;;;;;;;;;;-1.40;99.90;;;;;;6154457;23;19907;-89
2023/02/28 03:02:10;;;;;;;;;;;-1.70;99.90;;;;;;6136800;23;19908;-90
2023/02/28 03:04:40;;;;;;;;;;;-0.80;99.90;;;;;;6162411;23;20226;-90
2023/02/28 03:07:06;;;;;;;;;;;-1.40;99.90;;;;;;6146379;23;19900;-90
2023/02/28 03:09:32;;;;;;;;;;;-0.70;99.90;;;;;;6149190;23;19905;-91
2023/02/28 03:11:58;;;;;;;;;;;-0.90;99.90;;;;;;6179079;23;19932;-90
2023/02/28 06:00:56;;;;;;;;;;;-2.40;99.90;;;;;;6139032;23;19923;-88
2023/02/28 06:03:22;;;;;;;;;;;-2.20;99.90;;;;;;6141069;23;19924;-89
2023/02/28 06:05:48;;;;;;;;;;;-1.20;99.90;;;;;;6122769;23;19909;-90
2023/02/28 06:08:14;;;;;;;;;;;-2.70;99.90;;;;;;6127716;23;19944;-88
2023/02/28 06:10:39;;;;;;;;;;;-1.40;99.90;;;;;;6128558;23;19891;-88
2023/02/28 06:13:05;;;;;;;;;;;-2.10;99.90;;;;;;6152673;23;19896;-88
2023/02/28 06:15:31;;;;;;;;;;;-2.10;99.90;;;;;;6152969;23;19905;-89
2023/02/28 06:18:07;;;;;;;;;;;-2.50;99.90;;;;;;6152865;23;19893;-89
2023/02/28 06:20:33;;;;;;;;;;;-1.10;99.90;;;;;;6128292;23;19904;-88
2023/02/28 06:22:59;;;;;;;;;;;-2.40;99.90;;;;;;6153155;23;20392;-89
2023/02/28 06:25:25;;;;;;;;;;;-2.80;99.90;;;;;;6152719;23;19892;-88
2023/02/28 06:27:51;;;;;;;;;;;0.10;99.90;;;;;;6127620;23;19908;-87
2023/02/28 06:30:17;;;;;;;;;;;-0.10;99.90;;;;;;6152901;23;19901;-89
2023/02/28 06:32:43;;;;;;;;;;;0.10;99.90;;;;;;6152798;23;19924;-91
2023/02/28 06:35:09;;;;;;;;;;;-0.70;99.90;;;;;;6152877;23;19897;-89
2023/02/28 06:37:35;;;;;;;;;;;-0.40;99.90;;;;;;6126203;23;19936;-90
2023/02/28 06:40:01;;;;;;;;;;;-1.30;99.90;;;;;;6152923;23;19904;-88
2023/02/28 06:42:30;;;;;;;;;;;-1.70;99.90;;;;;;6152974;23;19885;-88
2023/02/28 06:45:03;;;;;;;;;;;-0.60;99.90;;;;;;6153139;23;19929;-88
2023/02/28 06:47:31;;;;;;;;;;;-2.30;99.90;;;;;;6154084;23;19901;-88
2023/02/28 06:49:56;;;;;;;;;;;-0.80;99.90;;;;;;6152348;23;20242;-87
2023/02/28 06:52:22;;;;;;;;;;;-0.40;99.90;;;;;;6152961;23;19904;-87
2023/02/28 06:54:59;;;;;;;;;;;-2.00;99.90;;;;;;6152521;23;19893;-89
2023/02/28 06:58:01;;;;;;;;;;;-1.80;99.90;;;;;;6153440;23;19893;-88
2023/02/28 07:00:26;;;;;;;;;;;-2.20;99.90;;;;;;6152844;23;19888;-88
2023/02/28 07:02:54;;;;;;;;;;;-2.00;99.90;;;;;;6152887;23;19904;-88
2023/02/28 07:05:20;;;;;;;;;;;-2.40;99.90;;;;;;6152526;23;19900;-88
2023/02/28 07:07:47;;;;;;;;;;;-1.30;99.90;;;;;;6152208;23;19908;-88
2023/02/28 07:10:23;;;;;;;;;;;-0.70;99.90;;;;;;6149048;23;19885;-90
2023/02/28 07:12:49;;;;;;;;;;;-4.50;99.90;;;;;;6152632;23;19924;-88
2023/02/28 07:15:14;;;;;;;;;;;-1.50;99.90;;;;;;6152656;23;19925;-87
2023/02/28 07:17:40;;;;;;;;;;;-1.40;99.90;;;;;;6152041;23;19913;-88
2023/02/28 07:20:06;;;;;;;;;;;0.50;99.90;;;;;;6152299;23;19928;-88
2023/02/28 07:22:32;;;;;;;;;;;-1.50;99.90;;;;;;6152414;23;19912;-88
2023/02/28 07:24:57;;;;;;;;;;;-2.50;99.90;;;;;;6152010;23;19905;-88
2023/02/28 07:27:25;;;;;;;;;;;-1.20;99.90;;;;;;6152473;23;19907;-88
2023/02/28 07:30:09;;;;;;;;;;;-0.70;99.90;;;;;;6146535;23;19909;-88
2023/02/28 07:32:37;;;;;;;;;;;-1.50;99.90;;;;;;6152305;23;19892;-88
2023/02/28 07:35:15;;;;;;;;;;;0.90;99.90;;;;;;6153335;23;19927;-88
2023/02/28 07:38:00;;;;;;;;;;;0.60;99.90;;;;;;6093080;23;19973;-88
2023/02/28 07:40:53;;;;;;;;;;;-1.50;99.90;;;;;;6068968;23;19886;-87
2023/02/28 07:43:19;;;;;;;;;;;-1.50;99.90;;;;;;6102846;23;19904;-89
2023/02/28 07:45:44;;;;;;;;;;;1.60;99.90;;;;;;6152255;23;19925;-90
2023/02/28 07:48:30;;;;;;;;;;;1.60;99.90;;;;;;6152597;23;19885;-88
2023/02/28 07:54:00;;;;;;;;;;;1.40;99.90;;;;;;6129442;23;19913;-89
2023/02/28 07:56:28;;;;;;;;;;;-0.80;99.90;;;;;;6154124;23;19901;-88
2023/02/28 07:58:54;;;;;;;;;;;-0.90;99.90;;;;;;6153129;23;19938;-88
2023/02/28 08:01:39;;;;;;;;;;;1.40;99.90;;;;;;6166809;23;19928;-89
2023/02/28 08:04:56;;;;;;;;;;;-0.70;99.90;;;;;;6183922;23;19953;-89
2023/02/28 08:07:22;;;;;;;;;;;0.10;99.90;;;;;;6204563;23;19909;-88
2023/02/28 08:10:11;;;;;;;;;;;0.60;99.90;;;;;;6152500;23;19900;-87
2023/02/28 08:12:37;;;;;;;;;;;-0.40;99.90;;;;;;6180010;23;19885;-90
2023/02/28 08:15:25;;;;;;;;;;;-2.00;99.90;;;;;;6171968;23;19900;-88
2023/02/28 08:18:06;;;;;;;;;;;1.40;99.90;;;;;;6207164;23;19904;-91
2023/02/28 08:20:32;;;;;;;;;;;0.00;99.90;;;;;;6207406;23;19907;-88
2023/02/28 08:22:57;;;;;;;;;;;0.60;99.90;;;;;;6206962;23;19901;-89
2023/02/28 08:25:26;;;;;;;;;;;1.00;99.90;;;;;;6207305;23;19884;-88
2023/02/28 08:27:58;;;;;;;;;;;-0.70;99.90;;;;;;6207694;23;19932;-89
2023/02/28 08:30:29;;;;;;;;;;;0.10;99.90;;;;;;6206684;23;19901;-88
2023/02/28 08:33:26;;;;;;;;;;;1.20;99.90;;;;;;6181808;23;19908;-88
2023/02/28 13:36:30;;;;;;;;;;;6.10;91.10;;;;;;6146198;23;20437;-91
2023/02/28 13:39:03;;;;;;;;;;;6.10;90.30;;;;;;6146230;23;19912;-90
2023/02/28 13:41:29;;;;;;;;;;;7.70;88.20;;;;;;6119768;23;19956;-91
2023/02/28 13:44:13;;;;;;;;;;;8.90;91.50;;;;;;6143898;23;19909;-90
2023/02/28 13:46:47;;;;;;;;;;;3.90;90.20;;;;;;6140586;23;19912;-91
2023/02/28 13:49:19;;;;;;;;;;;8.00;91.70;;;;;;6142211;23;19908;-89
2023/02/28 13:51:46;;;;;;;;;;;6.10;89.80;;;;;;6143989;23;19949;-90
2023/02/28 13:54:39;;;;;;;;;;;6.10;88.30;;;;;;6153752;23;19909;-96
2023/02/28 13:57:04;;;;;;;;;;;5.90;88.50;;;;;;6152895;23;19908;-94
2023/02/28 13:59:32;;;;;;;;;;;5.80;90.90;;;;;;6152097;23;19907;-93
2023/02/28 19:16:46;;;;;;;;;;;1.60;99.90;;;;;;6144785;23;19924;-89
2023/02/28 21:13:25;;;;;;;;;;;0.20;99.90;;;;;;6138918;23;19920;-88
2023/02/28 21:16:20;;;;;;;;;;;0.30;99.90;;;;;;6152699;23;19909;-89
2023/02/28 23:35:26;;;;;;;;;;;-0.90;99.90;;;;;;6110594;23;20368;-87
2023/02/28 23:57:35;;;;;;;;;;;-1.00;99.90;;;;;;6168463;23;19973;-87
